Time;durP1;ratioP1;P1;durP2;ratioP2;P2;SDS_P1;SDS_P2;PMS_P1;PMS_P2;Temp;Humidity;BMP_temperature;BMP_pressure;BME280_temperature;BME280_humidity;BME280_pressure;Samples;Min_cycle;Max_cycle;Signal;HPM_P1;HPM_P2
2023/05/26 00:02:13;;;;;;;19.13;4.32;;;;;;;;;;5012086;28;20111;-66
2023/05/26 00:04:43;;;;;;;16.40;3.92;;;;;;;;;;5010797;28;20082;-65
2023/05/26 00:07:09;;;;;;;18.50;4.78;;;;;;;;;;5013160;28;20033;-64
2023/05/26 00:09:35;;;;;;;19.63;4.75;;;;;;;;;;5013581;28;20037;-64
2023/05/26 00:12:01;;;;;;;22.08;4.50;;;;;;;;;;5012614;28;20036;-64
2023/05/26 00:14:27;;;;;;;19.75;4.00;;;;;;;;;;5011895;28;20025;-64
2023/05/26 00:16:53;;;;;;;18.35;4.25;;;;;;;;;;5011634;28;20096;-64
2023/05/26 00:19:21;;;;;;;20.25;4.40;;;;;;;;;;5011000;28;21620;-64
2023/05/26 00:21:47;;;;;;;29.27;5.03;;;;;;;;;;5009899;28;20029;-64
2023/05/26 00:24:13;;;;;;;22.65;5.50;;;;;;;;;;5012557;28;20039;-64
2023/05/26 00:26:39;;;;;;;20.92;5.10;;;;;;;;;;5010677;28;20112;-63
2023/05/26 00:29:05;;;;;;;25.88;5.13;;;;;;;;;;5010964;28;20041;-64
2023/05/26 00:31:31;;;;;;;28.85;5.47;;;;;;;;;;5013614;28;20029;-64
2023/05/26 00:33:57;;;;;;;20.80;4.82;;;;;;;;;;5013142;28;20070;-64
2023/05/26 00:36:23;;;;;;;25.35;5.32;;;;;;;;;;5012270;28;20029;-64
2023/05/26 00:38:49;;;;;;;25.25;5.03;;;;;;;;;;5014001;28;20044;-64
2023/05/26 00:41:15;;;;;;;21.83;4.47;;;;;;;;;;5013641;28;20044;-64
2023/05/26 00:43:41;;;;;;;22.30;4.22;;;;;;;;;;5012716;28;20030;-65
2023/05/26 00:46:07;;;;;;;22.65;4.60;;;;;;;;;;5012384;28;20032;-64
2023/05/26 00:48:34;;;;;;;23.48;4.75;;;;;;;;;;5011997;28;20029;-64
2023/05/26 00:51:00;;;;;;;23.88;4.82;;;;;;;;;;5012014;28;20098;-65
2023/05/26 00:53:26;;;;;;;21.95;5.18;;;;;;;;;;5010936;28;20052;-64
2023/05/26 00:55:54;;;;;;;21.85;4.10;;;;;;;;;;5012912;28;20040;-64
2023/05/26 00:58:20;;;;;;;20.80;4.57;;;;;;;;;;5012251;28;20063;-65
2023/05/26 01:00:47;;;;;;;24.27;4.47;;;;;;;;;;5012056;28;20036;-64
2023/05/26 01:03:14;;;;;;;22.20;4.40;;;;;;;;;;5012959;28;21829;-65
2023/05/26 01:05:40;;;;;;;26.88;5.70;;;;;;;;;;5011486;28;20061;-64
2023/05/26 01:08:06;;;;;;;22.65;4.30;;;;;;;;;;5013870;28;20040;-65
2023/05/26 01:10:32;;;;;;;27.25;4.80;;;;;;;;;;5013071;28;20043;-65
2023/05/26 01:13:21;;;;;;;19.15;4.55;;;;;;;;;;5013680;28;20033;-64
2023/05/26 01:15:51;;;;;;;19.88;4.45;;;;;;;;;;5011678;28;20549;-65
2023/05/26 01:18:25;;;;;;;20.02;4.90;;;;;;;;;;5011511;28;20488;-65
2023/05/26 01:20:51;;;;;;;22.45;6.45;;;;;;;;;;5009109;28;20040;-65
2023/05/26 01:23:20;;;;;;;25.45;5.05;;;;;;;;;;5010646;28;20310;-64
2023/05/26 01:26:05;;;;;;;20.35;3.78;;;;;;;;;;5010530;28;20389;-64
2023/05/26 01:28:33;;;;;;;20.63;4.30;;;;;;;;;;5009418;28;20029;-64
2023/05/26 01:30:59;;;;;;;20.48;4.68;;;;;;;;;;5013139;28;20044;-64
2023/05/26 01:33:25;;;;;;;23.42;6.03;;;;;;;;;;5012473;28;21124;-64
2023/05/26 01:35:51;;;;;;;17.75;4.72;;;;;;;;;;5013653;28;20088;-64
2023/05/26 01:38:17;;;;;;;24.67;4.75;;;;;;;;;;5013196;28;20038;-65
2023/05/26 01:40:44;;;;;;;19.67;4.57;;;;;;;;;;5013809;28;20736;-64
2023/05/26 01:43:46;;;;;;;30.20;5.80;;;;;;;;;;5012601;28;20519;-64
2023/05/26 01:46:19;;;;;;;24.95;5.07;;;;;;;;;;4969765;28;20077;-64
2023/05/26 01:48:46;;;;;;;19.83;4.75;;;;;;;;;;5005443;28;20087;-64
2023/05/26 01:51:14;;;;;;;20.40;5.03;;;;;;;;;;5013575;28;20039;-64
2023/05/26 01:53:42;;;;;;;23.90;4.07;;;;;;;;;;5013193;28;20239;-64
2023/05/26 01:56:09;;;;;;;22.00;4.45;;;;;;;;;;5011672;28;20038;-64
2023/05/26 01:58:35;;;;;;;21.88;4.55;;;;;;;;;;5013622;28;21739;-64
2023/05/26 02:01:03;;;;;;;18.50;4.63;;;;;;;;;;5011447;28;20072;-64
2023/05/26 02:03:29;;;;;;;20.45;4.82;;;;;;;;;;5015476;28;20163;-65
2023/05/26 02:05:58;;;;;;;21.35;3.95;;;;;;;;;;5017151;28;20037;-64
2023/05/26 02:08:24;;;;;;;14.43;4.30;;;;;;;;;;5016980;28;20029;-65
2023/05/26 02:10:50;;;;;;;18.83;4.25;;;;;;;;;;5015363;28;20025;-64
2023/05/26 02:13:16;;;;;;;17.88;3.78;;;;;;;;;;5014595;28;20029;-64
2023/05/26 02:15:42;;;;;;;21.17;4.85;;;;;;;;;;5015480;28;20061;-64
2023/05/26 02:18:10;;;;;;;21.92;4.22;;;;;;;;;;5015466;28;20040;-64
2023/05/26 02:20:36;;;;;;;19.38;4.80;;;;;;;;;;5015848;28;20068;-65
2023/05/26 02:23:02;;;;;;;23.98;5.88;;;;;;;;;;5015300;28;20125;-64
2023/05/26 02:25:28;;;;;;;24.05;4.35;;;;;;;;;;5014588;28;20041;-65
2023/05/26 02:27:54;;;;;;;15.38;3.55;;;;;;;;;;5014585;28;20025;-65
2023/05/26 02:30:20;;;;;;;21.85;4.40;;;;;;;;;;5015838;28;21769;-64
2023/05/26 02:32:46;;;;;;;21.80;4.65;;;;;;;;;;5015601;28;20079;-64
2023/05/26 02:35:12;;;;;;;23.27;4.97;;;;;;;;;;5015433;28;20040;-64
2023/05/26 02:37:38;;;;;;;21.90;4.90;;;;;;;;;;5015764;28;20025;-64
2023/05/26 02:40:05;;;;;;;22.73;4.53;;;;;;;;;;5015010;28;20122;-64
2023/05/26 02:42:31;;;;;;;16.15;3.90;;;;;;;;;;5013219;28;20065;-64
2023/05/26 02:44:57;;;;;;;24.30;5.63;;;;;;;;;;5016266;28;20025;-64
2023/05/26 02:47:23;;;;;;;19.95;4.43;;;;;;;;;;5013985;28;20126;-64
2023/05/26 02:49:49;;;;;;;19.25;3.83;;;;;;;;;;5017233;28;20159;-64
2023/05/26 02:52:16;;;;;;;29.25;4.47;;;;;;;;;;5009383;28;20184;-64
2023/05/26 02:54:42;;;;;;;20.48;4.10;;;;;;;;;;5014999;28;20023;-64
2023/05/26 02:57:08;;;;;;;19.42;4.18;;;;;;;;;;5015362;28;20694;-65
2023/05/26 02:59:34;;;;;;;23.73;4.75;;;;;;;;;;5015670;28;20112;-64
2023/05/26 03:02:00;;;;;;;22.27;3.92;;;;;;;;;;5014575;28;20033;-64
2023/05/26 03:04:26;;;;;;;18.88;3.92;;;;;;;;;;5015131;28;20065;-64
2023/05/26 03:06:52;;;;;;;16.23;3.83;;;;;;;;;;5013936;28;20052;-65
2023/05/26 03:09:18;;;;;;;17.58;4.55;;;;;;;;;;5013706;28;20037;-64
2023/05/26 03:11:44;;;;;;;15.77;3.63;;;;;;;;;;5013913;28;20033;-64
2023/05/26 03:14:10;;;;;;;18.20;3.83;;;;;;;;;;5012710;28;20037;-65
2023/05/26 03:16:36;;;;;;;21.95;4.60;;;;;;;;;;5015015;28;20060;-64
2023/05/26 03:19:03;;;;;;;20.17;4.68;;;;;;;;;;5013233;28;20110;-64
2023/05/26 03:21:30;;;;;;;22.92;4.68;;;;;;;;;;5013092;28;21749;-65
2023/05/26 03:23:56;;;;;;;21.23;4.07;;;;;;;;;;5012011;28;20044;-65
2023/05/26 03:26:22;;;;;;;16.55;3.80;;;;;;;;;;5011370;28;20120;-65
2023/05/26 03:28:48;;;;;;;21.48;4.30;;;;;;;;;;5014182;28;20567;-64
2023/05/26 03:31:14;;;;;;;26.35;5.78;;;;;;;;;;5012306;28;20053;-64
2023/05/26 03:33:40;;;;;;;22.58;4.60;;;;;;;;;;5012903;28;20036;-64
2023/05/26 03:36:08;;;;;;;23.40;4.47;;;;;;;;;;5012416;28;20207;-64
2023/05/26 03:38:34;;;;;;;18.15;4.22;;;;;;;;;;5013895;28;20068;-64
2023/05/26 03:41:00;;;;;;;24.63;4.13;;;;;;;;;;5014693;28;20041;-64
2023/05/26 03:43:26;;;;;;;14.43;3.70;;;;;;;;;;5013667;28;20044;-65
2023/05/26 03:45:52;;;;;;;16.75;3.60;;;;;;;;;;5012992;28;20538;-64
2023/05/26 03:48:19;;;;;;;22.30;4.30;;;;;;;;;;5014087;28;20044;-64
2023/05/26 03:50:46;;;;;;;15.38;3.75;;;;;;;;;;5016450;28;20032;-64
2023/05/26 03:53:12;;;;;;;17.40;4.43;;;;;;;;;;5013344;28;20044;-64
2023/05/26 03:55:38;;;;;;;23.30;4.25;;;;;;;;;;5013921;28;20032;-64
2023/05/26 03:58:05;;;;;;;22.17;3.95;;;;;;;;;;5014679;28;20041;-64
2023/05/26 04:00:32;;;;;;;23.63;5.50;;;;;;;;;;5014323;28;20033;-64
2023/05/26 04:02:58;;;;;;;24.13;4.72;;;;;;;;;;5014814;28;20033;-64
2023/05/26 04:05:24;;;;;;;20.70;4.32;;;;;;;;;;5013107;28;20033;-64
2023/05/26 04:07:51;;;;;;;19.77;4.55;;;;;;;;;;5014643;28;20044;-64
2023/05/26 04:10:17;;;;;;;24.58;4.78;;;;;;;;;;5012359;28;20033;-64
2023/05/26 04:12:43;;;;;;;16.80;3.60;;;;;;;;;;5012002;28;20037;-64
2023/05/26 04:15:09;;;;;;;16.25;3.70;;;;;;;;;;5013384;28;20591;-64
2023/05/26 04:17:36;;;;;;;19.05;4.28;;;;;;;;;;5013027;28;20071;-64
2023/05/26 04:20:07;;;;;;;18.38;3.72;;;;;;;;;;5014459;28;21105;-64
2023/05/26 04:22:33;;;;;;;21.35;4.60;;;;;;;;;;5013449;28;20100;-64
2023/05/26 04:25:00;;;;;;;20.88;4.88;;;;;;;;;;5013361;28;20044;-65
2023/05/26 04:27:26;;;;;;;20.60;4.93;;;;;;;;;;5011884;28;20021;-65
2023/05/26 04:29:52;;;;;;;20.25;4.40;;;;;;;;;;5012884;28;20029;-64
2023/05/26 04:32:21;;;;;;;21.77;4.30;;;;;;;;;;5012569;28;20136;-65
2023/05/26 04:34:48;;;;;;;27.27;4.93;;;;;;;;;;5013394;28;20064;-64
2023/05/26 04:37:14;;;;;;;23.02;5.70;;;;;;;;;;5012667;28;20035;-64
2023/05/26 04:39:41;;;;;;;21.77;4.85;;;;;;;;;;5012812;28;20766;-64
2023/05/26 04:42:07;;;;;;;18.92;4.43;;;;;;;;;;5014942;28;20075;-65
2023/05/26 04:44:33;;;;;;;19.75;4.13;;;;;;;;;;5013373;28;20038;-65
2023/05/26 04:47:03;;;;;;;22.02;6.35;;;;;;;;;;5014251;28;20120;-64
2023/05/26 04:49:29;;;;;;;22.02;4.63;;;;;;;;;;5013422;28;20017;-65
2023/05/26 04:51:56;;;;;;;15.38;3.97;;;;;;;;;;5013173;28;20045;-65
2023/05/26 04:54:22;;;;;;;17.88;4.55;;;;;;;;;;5013771;28;20061;-64
2023/05/26 04:56:48;;;;;;;16.58;5.03;;;;;;;;;;5013860;28;20032;-65
2023/05/26 04:59:17;;;;;;;20.88;4.65;;;;;;;;;;5015441;28;20045;-65
2023/05/26 05:01:47;;;;;;;23.92;5.32;;;;;;;;;;5013429;28;20064;-65
2023/05/26 05:04:13;;;;;;;24.85;5.57;;;;;;;;;;5014063;28;20025;-65
2023/05/26 05:06:39;;;;;;;22.75;4.30;;;;;;;;;;5013776;28;20029;-65
2023/05/26 05:09:05;;;;;;;15.98;4.47;;;;;;;;;;5011857;28;20152;-65
2023/05/26 05:11:31;;;;;;;22.65;4.15;;;;;;;;;;5012693;28;20090;-65
2023/05/26 05:13:57;;;;;;;19.73;4.85;;;;;;;;;;5012121;28;20041;-65
2023/05/26 05:16:24;;;;;;;20.90;4.38;;;;;;;;;;5013013;28;20053;-65
2023/05/26 05:18:50;;;;;;;21.67;4.70;;;;;;;;;;5013225;28;20072;-65
2023/05/26 05:21:16;;;;;;;19.13;4.25;;;;;;;;;;5012467;28;20038;-65
2023/05/26 05:23:42;;;;;;;25.33;6.72;;;;;;;;;;5013367;28;20520;-65
2023/05/26 05:26:08;;;;;;;21.88;4.80;;;;;;;;;;5011907;28;20559;-65
2023/05/26 05:28:34;;;;;;;20.50;4.40;;;;;;;;;;5010677;28;20048;-65
2023/05/26 05:31:00;;;;;;;20.17;4.25;;;;;;;;;;5009636;28;20029;-65
2023/05/26 05:33:27;;;;;;;17.42;3.97;;;;;;;;;;5009932;28;20032;-65
2023/05/26 05:35:53;;;;;;;24.00;5.30;;;;;;;;;;5010614;28;21749;-65
2023/05/26 05:38:19;;;;;;;21.27;4.90;;;;;;;;;;5000358;28;20060;-65
2023/05/26 05:40:46;;;;;;;18.17;4.15;;;;;;;;;;5014847;28;20037;-65
2023/05/26 05:43:12;;;;;;;16.33;4.00;;;;;;;;;;5016319;28;20035;-65
2023/05/26 05:45:38;;;;;;;20.38;5.03;;;;;;;;;;5016632;28;20144;-65
2023/05/26 05:48:04;;;;;;;27.42;5.07;;;;;;;;;;5015888;28;20033;-65
2023/05/26 05:50:30;;;;;;;19.50;3.40;;;;;;;;;;5016090;28;20035;-66
2023/05/26 05:52:56;;;;;;;17.58;4.00;;;;;;;;;;5015783;28;20415;-65
2023/05/26 05:55:22;;;;;;;19.17;3.83;;;;;;;;;;5015625;28;20495;-66
2023/05/26 05:57:48;;;;;;;20.95;4.53;;;;;;;;;;5016785;28;20577;-66
2023/05/26 06:00:15;;;;;;;25.17;5.00;;;;;;;;;;5015904;28;20052;-66
2023/05/26 06:02:41;;;;;;;20.63;5.07;;;;;;;;;;5016171;28;20028;-66
2023/05/26 06:05:07;;;;;;;23.90;5.18;;;;;;;;;;5016894;28;20495;-66
2023/05/26 06:07:33;;;;;;;21.55;4.38;;;;;;;;;;5016237;28;20037;-66
2023/05/26 06:09:59;;;;;;;24.83;5.10;;;;;;;;;;5015324;28;20037;-66
2023/05/26 06:12:25;;;;;;;20.27;4.13;;;;;;;;;;5012936;28;20049;-65
2023/05/26 06:14:51;;;;;;;18.95;4.38;;;;;;;;;;5013928;28;20092;-65
2023/05/26 06:17:17;;;;;;;16.08;4.07;;;;;;;;;;5014176;28;20049;-66
2023/05/26 06:19:44;;;;;;;17.63;3.88;;;;;;;;;;5014410;28;20040;-66
2023/05/26 06:22:10;;;;;;;17.15;3.90;;;;;;;;;;5014278;28;20923;-65
2023/05/26 06:24:36;;;;;;;18.55;4.32;;;;;;;;;;5013841;28;20039;-65
2023/05/26 06:27:02;;;;;;;20.27;4.60;;;;;;;;;;5014694;28;20025;-65
2023/05/26 06:29:28;;;;;;;22.33;4.18;;;;;;;;;;5015159;28;20059;-65
2023/05/26 06:31:54;;;;;;;18.15;3.80;;;;;;;;;;5014773;28;20149;-65
2023/05/26 06:34:20;;;;;;;17.85;4.03;;;;;;;;;;5014364;28;20124;-65
2023/05/26 06:36:46;;;;;;;25.83;5.53;;;;;;;;;;5014083;28;20071;-65
2023/05/26 06:39:13;;;;;;;17.38;3.40;;;;;;;;;;5012476;28;20037;-65
2023/05/26 06:41:39;;;;;;;16.17;4.47;;;;;;;;;;5013863;28;20072;-65
2023/05/26 06:44:05;;;;;;;22.88;4.38;;;;;;;;;;5013951;28;20037;-66
2023/05/26 06:46:31;;;;;;;19.92;4.18;;;;;;;;;;5014447;28;20032;-59
2023/05/26 06:48:57;;;;;;;18.83;4.53;;;;;;;;;;5015065;28;20083;-59
2023/05/26 06:51:23;;;;;;;18.73;5.45;;;;;;;;;;5014828;28;20033;-59
2023/05/26 06:53:49;;;;;;;16.77;3.75;;;;;;;;;;5014705;28;21331;-59
2023/05/26 06:56:15;;;;;;;16.17;3.67;;;;;;;;;;5015295;28;20045;-59
2023/05/26 06:58:42;;;;;;;14.82;3.78;;;;;;;;;;5016176;28;20477;-60
2023/05/26 07:01:08;;;;;;;22.60;3.97;;;;;;;;;;5015062;28;20157;-59
2023/05/26 07:03:34;;;;;;;11.52;3.22;;;;;;;;;;5014273;28;20033;-59
2023/05/26 07:06:02;;;;;;;18.05;4.22;;;;;;;;;;5009076;28;20029;-59
2023/05/26 07:08:28;;;;;;;16.08;3.00;;;;;;;;;;5008345;28;20037;-59
2023/05/26 07:10:54;;;;;;;14.55;3.67;;;;;;;;;;5008192;28;20120;-59
2023/05/26 07:13:21;;;;;;;17.40;4.22;;;;;;;;;;5008976;28;20033;-59
2023/05/26 07:15:47;;;;;;;15.20;4.30;;;;;;;;;;5008073;28;20056;-59
2023/05/26 07:18:13;;;;;;;15.55;4.05;;;;;;;;;;5009672;28;20033;-59
2023/05/26 07:20:39;;;;;;;15.00;3.45;;;;;;;;;;5008508;28;20087;-60
2023/05/26 07:23:05;;;;;;;19.25;4.55;;;;;;;;;;5006294;28;20040;-59
2023/05/26 07:25:31;;;;;;;17.88;4.30;;;;;;;;;;5007963;28;20040;-59
2023/05/26 07:27:57;;;;;;;13.63;3.35;;;;;;;;;;5009333;28;20906;-59
2023/05/26 07:30:23;;;;;;;14.63;4.10;;;;;;;;;;5008194;28;20051;-59
2023/05/26 07:32:50;;;;;;;12.43;3.10;;;;;;;;;;5008787;28;20044;-59
2023/05/26 07:35:16;;;;;;;18.90;4.50;;;;;;;;;;5005775;28;21781;-59
2023/05/26 07:37:42;;;;;;;14.77;3.88;;;;;;;;;;5005436;28;21692;-59
2023/05/26 07:40:08;;;;;;;16.48;3.22;;;;;;;;;;5005935;28;20177;-59
2023/05/26 07:42:34;;;;;;;12.57;3.28;;;;;;;;;;5007597;28;21152;-59
2023/05/26 07:45:01;;;;;;;13.55;3.20;;;;;;;;;;5005051;28;20033;-59
2023/05/26 07:47:31;;;;;;;16.02;3.70;;;;;;;;;;5006417;28;20374;-59
2023/05/26 07:49:57;;;;;;;11.73;2.80;;;;;;;;;;5008782;28;20025;-59
2023/05/26 07:52:24;;;;;;;15.88;3.90;;;;;;;;;;5009588;28;20025;-59
2023/05/26 07:54:50;;;;;;;10.18;3.13;;;;;;;;;;5007714;28;20404;-59
2023/05/26 07:57:16;;;;;;;12.45;2.78;;;;;;;;;;5008385;28;20063;-59
2023/05/26 07:59:42;;;;;;;15.77;3.95;;;;;;;;;;5008199;28;20060;-59
2023/05/26 08:02:10;;;;;;;19.20;4.60;;;;;;;;;;5009518;28;20033;-59
2023/05/26 08:04:36;;;;;;;10.50;2.72;;;;;;;;;;5009329;28;20069;-59
2023/05/26 08:07:02;;;;;;;14.40;3.80;;;;;;;;;;5007911;28;20021;-59
2023/05/26 08:09:28;;;;;;;13.05;3.35;;;;;;;;;;5008275;28;20032;-59
2023/05/26 08:11:54;;;;;;;12.93;3.10;;;;;;;;;;5009931;28;20048;-59
2023/05/26 08:14:22;;;;;;;14.18;3.15;;;;;;;;;;5009118;28;20041;-59
2023/05/26 08:16:48;;;;;;;12.57;2.63;;;;;;;;;;5009046;28;20053;-59
2023/05/26 08:19:14;;;;;;;18.08;3.35;;;;;;;;;;5009201;28;21089;-60
2023/05/26 08:21:40;;;;;;;17.02;3.33;;;;;;;;;;5008521;28;20599;-59
2023/05/26 08:24:06;;;;;;;12.07;3.28;;;;;;;;;;5007037;28;21551;-59
2023/05/26 08:26:32;;;;;;;13.07;3.15;;;;;;;;;;5006315;28;20099;-59
2023/05/26 08:28:59;;;;;;;12.48;3.47;;;;;;;;;;5006951;28;20052;-59
2023/05/26 08:31:25;;;;;;;16.75;4.00;;;;;;;;;;5007414;28;20030;-59
2023/05/26 08:33:53;;;;;;;14.15;3.80;;;;;;;;;;5008294;28;20382;-59
2023/05/26 08:36:19;;;;;;;12.10;2.72;;;;;;;;;;5005757;28;20135;-59
2023/05/26 08:38:45;;;;;;;16.00;3.53;;;;;;;;;;5007884;28;20040;-59
2023/05/26 08:41:15;;;;;;;13.88;4.13;;;;;;;;;;5007973;28;20068;-60
2023/05/26 08:44:07;;;;;;;12.85;3.40;;;;;;;;;;5008111;28;20044;-60
2023/05/26 08:46:35;;;;;;;15.57;4.50;;;;;;;;;;5004597;28;20087;-59
2023/05/26 08:49:02;;;;;;;16.20;3.20;;;;;;;;;;5007810;28;20581;-59
2023/05/26 08:51:29;;;;;;;14.32;2.95;;;;;;;;;;5008247;28;20033;-59
2023/05/26 08:53:55;;;;;;;13.40;3.50;;;;;;;;;;5007988;28;20057;-59
2023/05/26 08:56:21;;;;;;;16.67;4.10;;;;;;;;;;5008559;28;20044;-59
2023/05/26 08:58:47;;;;;;;13.15;3.65;;;;;;;;;;5007868;28;20041;-59
2023/05/26 09:01:13;;;;;;;12.88;3.38;;;;;;;;;;5007558;28;20030;-57
2023/05/26 09:03:39;;;;;;;12.23;3.15;;;;;;;;;;5008224;28;20614;-59
2023/05/26 09:06:06;;;;;;;14.57;4.00;;;;;;;;;;5008203;28;20036;-58
2023/05/26 09:08:32;;;;;;;11.98;2.70;;;;;;;;;;5008492;28;20044;-59
2023/05/26 09:10:58;;;;;;;14.02;3.28;;;;;;;;;;5007671;28;20065;-59
2023/05/26 09:13:24;;;;;;;13.73;3.55;;;;;;;;;;5012143;28;20060;-59
2023/05/26 09:15:53;;;;;;;15.57;3.50;;;;;;;;;;5012457;28;20431;-58
2023/05/26 09:18:20;;;;;;;14.73;3.97;;;;;;;;;;5013303;28;20025;-58
2023/05/26 09:20:47;;;;;;;12.88;3.05;;;;;;;;;;5010668;28;20033;-58
2023/05/26 09:23:15;;;;;;;19.88;3.50;;;;;;;;;;5011906;28;21072;-59
2023/05/26 09:25:42;;;;;;;14.48;3.45;;;;;;;;;;5012410;28;20029;-59
2023/05/26 09:28:09;;;;;;;14.20;3.80;;;;;;;;;;5017747;28;20044;-59
2023/05/26 09:30:36;;;;;;;11.32;2.83;;;;;;;;;;5016997;28;20433;-60
2023/05/26 09:33:08;;;;;;;12.30;3.40;;;;;;;;;;5018055;28;20120;-59
2023/05/26 09:35:44;;;;;;;12.35;3.13;;;;;;;;;;5017505;28;20033;-59
2023/05/26 09:38:11;;;;;;;17.58;4.55;;;;;;;;;;5017857;28;20025;-59
2023/05/26 09:40:41;;;;;;;13.18;3.50;;;;;;;;;;5017102;28;20033;-59
2023/05/26 09:43:07;;;;;;;13.77;3.63;;;;;;;;;;5015839;28;20072;-59
2023/05/26 09:45:35;;;;;;;14.18;3.33;;;;;;;;;;5016348;28;20072;-59
2023/05/26 09:48:01;;;;;;;13.52;3.33;;;;;;;;;;5017799;28;20606;-59
2023/05/26 09:50:30;;;;;;;19.88;3.45;;;;;;;;;;5015674;28;20044;-58
2023/05/26 09:52:57;;;;;;;15.48;4.05;;;;;;;;;;5017332;28;20040;-59
2023/05/26 09:55:23;;;;;;;16.73;4.07;;;;;;;;;;5016645;28;20031;-59
2023/05/26 09:57:52;;;;;;;11.85;3.50;;;;;;;;;;5017558;28;20044;-59
2023/05/26 10:00:18;;;;;;;14.57;4.10;;;;;;;;;;5018092;28;20684;-59
2023/05/26 10:02:46;;;;;;;14.45;3.50;;;;;;;;;;5017711;28;20038;-59
2023/05/26 10:05:12;;;;;;;13.73;3.28;;;;;;;;;;5017550;28;20056;-59
2023/05/26 10:07:40;;;;;;;15.57;3.47;;;;;;;;;;5017613;28;20025;-59
2023/05/26 10:10:08;;;;;;;16.20;3.80;;;;;;;;;;5017616;28;20024;-59
2023/05/26 10:12:35;;;;;;;17.20;3.85;;;;;;;;;;5017601;28;20156;-59
2023/05/26 10:15:02;;;;;;;12.45;3.35;;;;;;;;;;5022963;28;20054;-59
2023/05/26 10:17:28;;;;;;;12.60;3.40;;;;;;;;;;5021942;28;21073;-59
2023/05/26 10:19:55;;;;;;;21.65;3.30;;;;;;;;;;5022371;28;20122;-59
2023/05/26 10:22:34;;;;;;;14.18;3.40;;;;;;;;;;5023082;28;20040;-59
2023/05/26 10:25:16;;;;;;;13.02;3.17;;;;;;;;;;5022494;28;21778;-59
2023/05/26 10:27:50;;;;;;;15.80;3.70;;;;;;;;;;5021892;28;20029;-59
2023/05/26 10:30:17;;;;;;;17.30;3.67;;;;;;;;;;5022946;28;20040;-59
2023/05/26 10:32:52;;;;;;;13.85;3.63;;;;;;;;;;5021954;28;20029;-59
2023/05/26 10:35:26;;;;;;;15.45;3.47;;;;;;;;;;5022686;28;20159;-59
2023/05/26 10:37:56;;;;;;;14.68;4.28;;;;;;;;;;5022281;28;20032;-60
2023/05/26 10:40:29;;;;;;;13.68;4.13;;;;;;;;;;5022247;28;20125;-59
2023/05/26 10:43:02;;;;;;;19.83;4.28;;;;;;;;;;5021235;28;20041;-59
2023/05/26 10:45:32;;;;;;;11.93;3.30;;;;;;;;;;5022612;28;20044;-59
2023/05/26 10:48:11;;;;;;;14.05;4.22;;;;;;;;;;5022164;28;20052;-59
2023/05/26 10:51:00;;;;;;;15.60;3.03;;;;;;;;;;5020717;28;20029;-59
2023/05/26 10:53:30;;;;;;;12.73;3.20;;;;;;;;;;5021387;28;20033;-59
2023/05/26 10:56:02;;;;;;;14.65;3.97;;;;;;;;;;5021513;28;20025;-59
2023/05/26 10:58:34;;;;;;;18.35;3.97;;;;;;;;;;5020256;28;20082;-59
2023/05/26 11:01:01;;;;;;;15.80;3.85;;;;;;;;;;5020637;28;20037;-59
2023/05/26 11:03:43;;;;;;;12.68;3.05;;;;;;;;;;5021681;28;20048;-60
2023/05/26 11:06:10;;;;;;;16.17;3.92;;;;;;;;;;5022164;28;20067;-59
2023/05/26 11:08:36;;;;;;;16.50;4.15;;;;;;;;;;5021579;28;20045;-60
2023/05/26 11:11:03;;;;;;;10.48;3.25;;;;;;;;;;5021323;28;21427;-59
2023/05/26 11:13:39;;;;;;;14.55;4.03;;;;;;;;;;5022380;28;20040;-59
2023/05/26 11:16:31;;;;;;;14.80;3.22;;;;;;;;;;5020951;28;20104;-59
2023/05/26 11:18:58;;;;;;;14.05;3.35;;;;;;;;;;5020240;28;21001;-59
2023/05/26 11:21:25;;;;;;;13.85;4.07;;;;;;;;;;5021927;28;20084;-59
2023/05/26 11:23:56;;;;;;;15.23;4.10;;;;;;;;;;5022219;28;20033;-61
2023/05/26 11:26:22;;;;;;;17.67;3.78;;;;;;;;;;5021536;28;20032;-60
2023/05/26 11:28:48;;;;;;;11.43;2.92;;;;;;;;;;5022008;28;20049;-59
2023/05/26 11:31:16;;;;;;;14.52;3.40;;;;;;;;;;5021578;28;20096;-59
2023/05/26 11:33:42;;;;;;;13.27;3.83;;;;;;;;;;5021082;28;20999;-59
2023/05/26 11:36:09;;;;;;;16.27;3.85;;;;;;;;;;5021755;28;20029;-59
2023/05/26 11:38:39;;;;;;;14.57;2.95;;;;;;;;;;5021500;28;20033;-59
2023/05/26 11:41:06;;;;;;;12.20;2.95;;;;;;;;;;5020771;28;20108;-60
2023/05/26 11:43:32;;;;;;;11.68;4.00;;;;;;;;;;5022089;28;20033;-59
2023/05/26 11:46:01;;;;;;;15.68;4.00;;;;;;;;;;5021174;28;20040;-60
2023/05/26 11:48:39;;;;;;;16.77;3.60;;;;;;;;;;5019374;28;20063;-59
2023/05/26 11:51:09;;;;;;;18.73;4.20;;;;;;;;;;5018802;28;20074;-60
2023/05/26 11:53:35;;;;;;;18.25;4.40;;;;;;;;;;5019227;28;20496;-60
2023/05/26 11:56:11;;;;;;;13.02;4.13;;;;;;;;;;5020543;28;20483;-59
2023/05/26 11:58:39;;;;;;;13.90;3.45;;;;;;;;;;5020178;28;20037;-60
2023/05/26 12:01:05;;;;;;;16.88;3.70;;;;;;;;;;5020866;28;20064;-59
2023/05/26 12:03:36;;;;;;;14.63;3.60;;;;;;;;;;5021353;28;20047;-59
2023/05/26 12:06:11;;;;;;;15.43;3.47;;;;;;;;;;5021364;28;20030;-59
2023/05/26 12:08:43;;;;;;;14.50;3.38;;;;;;;;;;5020995;28;20099;-59
2023/05/26 12:11:13;;;;;;;15.60;3.83;;;;;;;;;;5021189;28;20041;-60
2023/05/26 12:13:40;;;;;;;15.68;4.47;;;;;;;;;;5019551;28;20025;-60
2023/05/26 12:16:17;;;;;;;13.90;3.80;;;;;;;;;;5019315;28;20132;-60
2023/05/26 12:18:43;;;;;;;17.00;4.47;;;;;;;;;;5020376;28;20511;-60
2023/05/26 12:21:12;;;;;;;14.15;2.78;;;;;;;;;;5019916;28;20029;-59
2023/05/26 12:23:40;;;;;;;17.48;4.10;;;;;;;;;;5019675;28;20064;-59
2023/05/26 12:26:16;;;;;;;16.83;3.72;;;;;;;;;;5020498;28;20040;-60
2023/05/26 12:28:43;;;;;;;17.25;3.38;;;;;;;;;;5021435;28;20075;-60
2023/05/26 12:31:09;;;;;;;12.60;3.53;;;;;;;;;;5021058;28;20028;-60
2023/05/26 12:33:35;;;;;;;13.57;3.97;;;;;;;;;;5019480;28;20234;-59
2023/05/26 12:36:01;;;;;;;14.82;4.68;;;;;;;;;;5020307;28;20036;-60
2023/05/26 12:38:28;;;;;;;19.23;4.00;;;;;;;;;;5019778;28;20121;-60
2023/05/26 12:40:54;;;;;;;18.40;4.30;;;;;;;;;;5021059;28;20843;-59
2023/05/26 12:43:22;;;;;;;12.95;3.60;;;;;;;;;;5019405;28;20052;-59
2023/05/26 12:45:48;;;;;;;17.25;3.75;;;;;;;;;;5019833;28;20556;-60
2023/05/26 12:48:14;;;;;;;16.77;3.85;;;;;;;;;;5020279;28;21778;-60
2023/05/26 12:50:40;;;;;;;18.50;4.68;;;;;;;;;;5019578;28;20033;-60
2023/05/26 12:53:06;;;;;;;21.52;5.03;;;;;;;;;;5019277;28;20110;-59
2023/05/26 12:55:32;;;;;;;12.88;3.63;;;;;;;;;;5019266;28;20037;-60
2023/05/26 12:57:58;;;;;;;11.32;3.40;;;;;;;;;;5019083;28;20029;-60
2023/05/26 13:00:24;;;;;;;12.98;3.67;;;;;;;;;;5018981;28;20037;-60
2023/05/26 13:02:50;;;;;;;20.00;4.05;;;;;;;;;;5019987;28;20048;-60
2023/05/26 13:05:16;;;;;;;17.58;4.10;;;;;;;;;;5019682;28;20079;-61
2023/05/26 13:07:43;;;;;;;15.73;4.55;;;;;;;;;;5017349;28;20029;-61
2023/05/26 13:10:09;;;;;;;21.15;4.85;;;;;;;;;;5020070;28;20043;-65
2023/05/26 13:12:35;;;;;;;19.67;4.53;;;;;;;;;;5018840;28;20064;-65
2023/05/26 13:15:01;;;;;;;19.48;4.80;;;;;;;;;;5018928;28;20047;-65
2023/05/26 13:17:27;;;;;;;17.25;3.85;;;;;;;;;;5019003;28;20053;-65
2023/05/26 13:19:55;;;;;;;19.50;4.45;;;;;;;;;;5019587;28;20033;-65
2023/05/26 13:22:21;;;;;;;16.70;4.45;;;;;;;;;;5019401;28;20074;-65
2023/05/26 13:24:47;;;;;;;20.10;4.15;;;;;;;;;;5019858;28;20040;-65
2023/05/26 13:27:13;;;;;;;19.63;4.72;;;;;;;;;;5020442;28;20540;-65
2023/05/26 13:29:40;;;;;;;20.10;5.18;;;;;;;;;;5019230;28;20032;-66
2023/05/26 13:32:07;;;;;;;18.65;3.95;;;;;;;;;;5019569;28;20489;-65
2023/05/26 13:34:33;;;;;;;15.07;4.07;;;;;;;;;;5019501;28;20131;-65
2023/05/26 13:36:59;;;;;;;13.68;3.88;;;;;;;;;;5020482;28;20833;-65
2023/05/26 13:39:25;;;;;;;19.75;4.22;;;;;;;;;;5019674;28;20036;-65
2023/05/26 13:41:51;;;;;;;17.30;4.45;;;;;;;;;;5017625;28;20041;-66
2023/05/26 13:44:17;;;;;;;12.73;3.50;;;;;;;;;;5020357;28;20055;-66
2023/05/26 13:46:43;;;;;;;15.18;3.47;;;;;;;;;;5019385;28;20492;-65
2023/05/26 13:49:09;;;;;;;13.57;4.05;;;;;;;;;;5018969;28;20962;-63
2023/05/26 13:51:35;;;;;;;12.40;3.55;;;;;;;;;;5019901;28;20416;-65
2023/05/26 13:54:01;;;;;;;13.10;3.53;;;;;;;;;;5018509;28;20496;-65
2023/05/26 13:56:28;;;;;;;12.75;3.55;;;;;;;;;;5017694;28;20063;-65
2023/05/26 13:58:54;;;;;;;14.75;3.35;;;;;;;;;;5020129;28;20128;-65
2023/05/26 14:01:22;;;;;;;13.85;3.65;;;;;;;;;;5022830;28;20167;-65
2023/05/26 14:03:48;;;;;;;11.98;3.47;;;;;;;;;;5021825;28;20032;-65
2023/05/26 14:06:14;;;;;;;16.83;4.38;;;;;;;;;;5020774;28;20033;-65
2023/05/26 14:08:40;;;;;;;15.23;3.30;;;;;;;;;;5023833;28;20040;-65
2023/05/26 14:11:06;;;;;;;15.35;4.32;;;;;;;;;;5022313;28;20029;-65
2023/05/26 14:13:32;;;;;;;14.60;4.20;;;;;;;;;;5022757;28;20037;-65
2023/05/26 14:15:58;;;;;;;15.32;4.03;;;;;;;;;;5020051;28;20065;-64
2023/05/26 14:18:24;;;;;;;11.93;3.80;;;;;;;;;;5022546;28;20579;-65
2023/05/26 14:20:51;;;;;;;12.68;3.17;;;;;;;;;;5023030;28;20033;-64
2023/05/26 14:23:17;;;;;;;14.95;4.85;;;;;;;;;;5022863;28;20039;-65
2023/05/26 14:25:43;;;;;;;16.83;3.75;;;;;;;;;;5023451;28;20133;-65
2023/05/26 14:28:09;;;;;;;13.43;4.28;;;;;;;;;;5022501;28;20037;-65
2023/05/26 14:30:35;;;;;;;15.88;3.67;;;;;;;;;;5022098;28;20568;-65
2023/05/26 14:33:03;;;;;;;18.02;4.30;;;;;;;;;;5022341;28;20045;-65